createdAt,value
2022-09-26T00:01:37.273Z,1.10
2022-09-26T00:04:10.833Z,0.67
2022-09-26T00:06:38.106Z,0.77
2022-09-26T00:09:05.643Z,1.07
2022-09-26T00:11:34.607Z,0.93
2022-09-26T00:14:10.672Z,1.73
2022-09-26T00:16:39.115Z,1.27
2022-09-26T00:19:07.027Z,1.13
2022-09-26T00:21:37.083Z,1.13
2022-09-26T00:24:05.152Z,1.27
2022-09-26T00:26:35.610Z,1.20
2022-09-26T00:29:08.826Z,1.23
2022-09-26T00:31:44.414Z,1.53
2022-09-26T00:34:14.401Z,0.90
2022-09-26T00:36:41.622Z,1.57
2022-09-26T00:39:12.758Z,0.90
2022-09-26T00:41:40.380Z,0.97
2022-09-26T00:44:46.384Z,0.77
2022-09-26T00:47:25.327Z,1.10
2022-09-26T00:50:02.337Z,0.83
2022-09-26T00:52:42.107Z,1.60
2022-09-26T00:55:14.314Z,0.60
2022-09-26T00:57:53.399Z,1.00
2022-09-26T01:00:21.114Z,1.43
2022-09-26T01:02:49.306Z,1.23
2022-09-26T01:05:20.404Z,1.10
2022-09-26T01:07:49.212Z,0.87
2022-09-26T01:10:18.489Z,1.03
2022-09-26T01:12:45.719Z,0.80
2022-09-26T01:15:13.798Z,1.40
2022-09-26T01:17:43.799Z,0.90
2022-09-26T01:20:57.072Z,0.90
2022-09-26T01:23:42.595Z,1.33
2022-09-26T01:26:32.402Z,0.67
2022-09-26T01:29:14.746Z,0.67
2022-09-26T01:32:28.409Z,0.60
2022-09-26T01:35:09.306Z,0.93
2022-09-26T01:38:01.848Z,0.50
2022-09-26T01:40:44.385Z,0.80
2022-09-26T01:43:41.673Z,0.80
2022-09-26T01:46:34.356Z,0.77
2022-09-26T01:49:24.634Z,1.13
2022-09-26T01:51:59.933Z,0.67
2022-09-26T01:54:37.328Z,1.37
2022-09-26T01:57:18.803Z,0.70
2022-09-26T01:59:59.205Z,0.57
2022-09-26T02:02:33.255Z,0.50
2022-09-26T02:05:11.232Z,0.83
2022-09-26T02:07:50.299Z,0.77
2022-09-26T02:10:26.274Z,1.10
2022-09-26T02:13:03.015Z,0.57
2022-09-26T02:15:35.110Z,0.67
2022-09-26T02:18:35.498Z,0.50
2022-09-26T02:21:16.571Z,0.77
2022-09-26T02:23:44.064Z,0.37
2022-09-26T02:26:11.597Z,0.50
2022-09-26T02:28:38.844Z,0.20
2022-09-26T02:31:09.026Z,0.53
2022-09-26T02:33:37.481Z,0.50
2022-09-26T02:36:10.368Z,1.13
2022-09-26T02:38:38.014Z,0.40
2022-09-26T02:41:26.932Z,0.87
2022-09-26T02:44:29.343Z,0.40
2022-09-26T02:47:13.606Z,0.23
2022-09-26T02:50:22.481Z,0.60
2022-09-26T02:53:27.176Z,0.47
2022-09-26T02:56:13.735Z,0.40
2022-09-26T02:59:21.747Z,0.50
2022-09-26T03:02:00.337Z,0.57
2022-09-26T03:04:55.153Z,0.70
2022-09-26T03:07:33.770Z,0.40
2022-09-26T03:10:04.978Z,0.60
2022-09-26T03:12:34.437Z,0.23
2022-09-26T03:15:04.842Z,0.83
2022-09-26T03:17:36.003Z,1.03
2022-09-26T03:20:13.457Z,0.50
2022-09-26T03:22:42.637Z,0.30
2022-09-26T03:25:22.845Z,0.67
2022-09-26T03:27:51.019Z,0.90
2022-09-26T03:30:21.276Z,0.97
2022-09-26T03:32:49.318Z,1.13
2022-09-26T03:35:16.992Z,0.57
2022-09-26T03:37:44.448Z,0.50
2022-09-26T03:40:13.392Z,0.60
2022-09-26T03:42:41.102Z,0.70
2022-09-26T03:45:10.761Z,1.10
2022-09-26T03:47:38.573Z,0.80
2022-09-26T03:50:06.861Z,1.13
2022-09-26T03:52:33.931Z,0.70
2022-09-26T03:55:01.399Z,1.03
2022-09-26T03:57:28.869Z,0.80
2022-09-26T03:59:56.322Z,0.70
2022-09-26T04:02:23.835Z,0.80
2022-09-26T04:04:51.492Z,0.67
2022-09-26T04:07:19.104Z,0.97
2022-09-26T04:09:46.579Z,0.90
2022-09-26T04:12:13.960Z,0.43
2022-09-26T04:14:43.433Z,0.60
2022-09-26T04:17:10.986Z,0.30
2022-09-26T04:19:38.483Z,0.73
2022-09-26T04:22:08.342Z,0.50
2022-09-26T04:24:36.259Z,0.83
2022-09-26T04:27:04.978Z,0.70
2022-09-26T04:29:32.542Z,0.50
2022-09-26T04:32:01.439Z,0.70
2022-09-26T04:34:29.017Z,0.77
2022-09-26T04:36:57.328Z,0.70
2022-09-26T04:39:25.894Z,0.57
2022-09-26T04:41:53.360Z,0.67
2022-09-26T04:44:20.969Z,0.40
2022-09-26T04:46:48.264Z,0.50
2022-09-26T04:49:15.949Z,0.80
2022-09-26T04:51:44.260Z,0.37
2022-09-26T04:54:11.770Z,0.70
2022-09-26T04:56:39.496Z,0.50
2022-09-26T04:59:06.885Z,1.13
2022-09-26T05:01:34.634Z,0.60
2022-09-26T05:04:02.597Z,0.60
2022-09-26T05:06:30.008Z,1.60
2022-09-26T05:08:57.770Z,0.53
2022-09-26T05:11:25.233Z,0.50
2022-09-26T05:13:53.981Z,1.30
2022-09-26T05:16:25.156Z,0.40
2022-09-26T05:18:52.681Z,0.50
2022-09-26T05:21:20.422Z,0.40
2022-09-26T05:24:06.341Z,0.87
2022-09-26T05:26:48.382Z,1.00
2022-09-26T05:29:17.467Z,1.00
2022-09-26T05:31:44.978Z,0.83
2022-09-26T05:34:19.283Z,1.17
2022-09-26T05:36:47.848Z,0.40
2022-09-26T05:39:35.868Z,1.07
2022-09-26T05:42:07.499Z,0.60
2022-09-26T05:44:34.936Z,0.87
2022-09-26T05:47:02.485Z,0.43
2022-09-26T05:49:30.382Z,0.80
2022-09-26T05:51:57.743Z,0.77
2022-09-26T05:54:25.265Z,0.77
2022-09-26T05:56:52.567Z,0.87
2022-09-26T05:59:21.086Z,0.47
2022-09-26T06:01:48.539Z,0.87
2022-09-26T06:04:16.040Z,0.47
2022-09-26T06:06:44.351Z,0.63
2022-09-26T06:09:11.926Z,0.60
2022-09-26T06:11:39.581Z,0.77
2022-09-26T06:14:07.229Z,1.17
2022-09-26T06:16:34.894Z,0.70
2022-09-26T06:19:02.724Z,0.67
2022-09-26T06:21:30.081Z,1.40
2022-09-26T06:23:57.595Z,0.60
2022-09-26T06:26:29.026Z,0.50
2022-09-26T06:29:00.393Z,0.37
2022-09-26T06:31:29.283Z,1.13
2022-09-26T06:33:57.294Z,0.67
2022-09-26T06:36:25.183Z,0.70
2022-09-26T06:38:54.077Z,0.80
2022-09-26T06:41:21.608Z,1.10
2022-09-26T06:43:49.969Z,0.60
2022-09-26T06:46:20.060Z,0.77
2022-09-26T06:48:47.499Z,1.30
2022-09-26T06:51:14.568Z,0.90
2022-09-26T06:53:43.037Z,0.63
2022-09-26T06:56:11.667Z,0.80
2022-09-26T06:58:39.303Z,1.00
2022-09-26T07:01:09.114Z,0.80
2022-09-26T07:03:39.443Z,1.30
2022-09-26T07:06:09.497Z,0.80
2022-09-26T07:09:01.066Z,0.47
2022-09-26T07:11:50.610Z,0.50
2022-09-26T07:14:18.839Z,0.33
2022-09-26T07:16:49.545Z,0.43
2022-09-26T07:19:17.416Z,0.73
2022-09-26T07:21:46.320Z,0.70
2022-09-26T07:24:14.399Z,0.60
2022-09-26T07:26:42.570Z,0.63
2022-09-26T07:29:10.243Z,0.60
2022-09-26T07:31:38.217Z,0.63
2022-09-26T07:34:08.791Z,0.67
2022-09-26T07:36:40.306Z,0.60
2022-09-26T07:39:07.764Z,0.40
2022-09-26T07:41:35.480Z,0.83
2022-09-26T07:44:59.336Z,0.50
2022-09-26T07:47:16.703Z,0.53
2022-09-26T07:50:02.698Z,0.30
2022-09-26T07:52:29.812Z,0.57
2022-09-26T07:54:57.530Z,0.40
2022-09-26T07:57:25.031Z,0.37
2022-09-26T07:59:54.141Z,0.30
2022-09-26T08:02:32.967Z,0.60
2022-09-26T08:05:03.569Z,0.33
2022-09-26T08:07:32.933Z,0.60
2022-09-26T08:10:03.115Z,0.63
2022-09-26T08:12:37.392Z,0.70
2022-09-26T08:15:07.382Z,0.80
2022-09-26T08:17:35.194Z,0.23
2022-09-26T08:20:02.881Z,0.40
2022-09-26T08:22:29.982Z,0.30
2022-09-26T08:24:59.072Z,0.40
2022-09-26T08:27:27.135Z,0.40
2022-09-26T08:29:54.524Z,0.73
2022-09-26T08:32:22.003Z,0.20
2022-09-26T08:34:53.128Z,0.77
2022-09-26T08:37:21.139Z,0.60
2022-09-26T08:39:48.623Z,0.23
2022-09-26T08:42:34.679Z,0.30
2022-09-26T08:45:40.022Z,0.43
2022-09-26T08:48:33.149Z,2.00
2022-09-26T08:51:38.663Z,0.33
2022-09-26T08:54:15.251Z,0.20
2022-09-26T08:56:50.344Z,0.20
2022-09-26T08:59:42.156Z,0.20
2022-09-26T09:02:22.095Z,0.17
2022-09-26T09:05:04.079Z,0.50
2022-09-26T09:07:31.602Z,0.20
2022-09-26T09:10:14.740Z,0.63
2022-09-26T09:13:17.589Z,0.47
2022-09-26T09:16:29.037Z,0.40
2022-09-26T09:19:48.844Z,0.70
2022-09-26T09:22:18.527Z,1.33
2022-09-26T09:25:03.393Z,0.27
2022-09-26T09:28:07.188Z,0.13
2022-09-26T09:30:52.027Z,0.20
2022-09-26T09:33:27.448Z,0.20
2022-09-26T09:36:14.101Z,0.40
2022-09-26T09:38:49.530Z,0.40
2022-09-26T09:41:35.188Z,0.30
2022-09-26T09:44:24.765Z,0.43
2022-09-26T09:46:52.334Z,0.30
2022-09-26T09:49:25.195Z,0.50
2022-09-26T09:52:29.240Z,0.27
2022-09-26T09:54:56.234Z,0.40
2022-09-26T09:57:49.244Z,1.00
2022-09-26T10:00:19.205Z,0.50
2022-09-26T10:03:27.521Z,0.57
2022-09-26T10:06:01.388Z,0.60
2022-09-26T10:08:31.513Z,0.57
2022-09-26T10:11:12.479Z,0.60
2022-09-26T10:13:43.055Z,0.70
2022-09-26T10:16:15.461Z,0.63
2022-09-26T10:19:07.920Z,0.50
2022-09-26T10:21:42.792Z,0.30
2022-09-26T10:24:41.150Z,0.40
2022-09-26T10:27:22.658Z,0.33
2022-09-26T10:29:59.478Z,0.13
2022-09-26T10:32:29.588Z,0.40
2022-09-26T10:35:21.315Z,0.27
2022-09-26T10:38:18.031Z,0.30
2022-09-26T10:40:56.351Z,0.37
2022-09-26T10:43:32.310Z,0.30
2022-09-26T10:46:12.985Z,0.37
2022-09-26T10:48:47.157Z,0.20
2022-09-26T10:51:29.636Z,0.20
2022-09-26T10:54:42.558Z,0.30
2022-09-26T10:57:21.722Z,0.27
2022-09-26T10:59:50.999Z,0.60
2022-09-26T11:02:24.256Z,0.40
2022-09-26T11:05:19.494Z,0.50
2022-09-26T11:07:49.605Z,0.30
2022-09-26T11:10:29.488Z,0.70
2022-09-26T11:13:16.202Z,0.50
2022-09-26T11:16:10.426Z,0.50
2022-09-26T11:18:58.091Z,0.40
2022-09-26T11:21:44.347Z,0.30
2022-09-26T11:24:20.055Z,0.20
2022-09-26T11:27:04.535Z,0.40
2022-09-26T11:30:15.117Z,0.30
2022-09-26T11:32:51.811Z,0.40
2022-09-26T11:35:58.216Z,0.27
2022-09-26T11:38:47.949Z,0.50
2022-09-26T11:41:19.033Z,0.30
2022-09-26T11:44:08.661Z,0.47
2022-09-26T11:46:46.301Z,0.40
2022-09-26T11:49:33.037Z,0.30
2022-09-26T11:52:30.385Z,0.23
2022-09-26T11:55:56.127Z,0.73
2022-09-26T11:58:55.087Z,0.37
2022-09-26T12:02:15.960Z,0.27
2022-09-26T12:05:18.528Z,0.20
2022-09-26T12:08:17.495Z,0.30
2022-09-26T12:11:06.019Z,0.53
2022-09-26T12:13:39.139Z,0.30
2022-09-26T12:16:24.158Z,0.53
2022-09-26T12:19:05.526Z,0.30
2022-09-26T12:22:05.042Z,0.50
2022-09-26T12:25:30.748Z,0.47
2022-09-26T12:28:42.704Z,0.60
2022-09-26T12:31:33.824Z,0.50
2022-09-26T12:34:30.685Z,0.37
2022-09-26T12:37:09.862Z,0.30
2022-09-26T12:40:09.488Z,0.53
2022-09-26T12:43:14.154Z,0.60
2022-09-26T12:46:25.186Z,0.37
2022-09-26T12:49:33.340Z,0.30
2022-09-26T12:52:27.493Z,0.90
2022-09-26T12:55:49.243Z,0.37
2022-09-26T12:58:50.627Z,0.30
2022-09-26T13:02:00.869Z,0.50
2022-09-26T13:04:28.370Z,0.53
2022-09-26T13:07:24.567Z,0.40
2022-09-26T13:10:07.260Z,0.60
2022-09-26T13:13:50.850Z,0.50
2022-09-26T13:16:47.620Z,0.37
2022-09-26T13:19:34.602Z,0.47
2022-09-26T13:22:27.545Z,0.60
2022-09-26T13:25:21.873Z,0.67
2022-09-26T13:28:16.637Z,0.80
2022-09-26T13:30:55.031Z,0.40
2022-09-26T13:33:36.661Z,0.57
2022-09-26T13:36:05.391Z,0.60
2022-09-26T13:38:58.080Z,1.07
2022-09-26T13:41:52.871Z,0.67
2022-09-26T13:45:05.078Z,0.73
2022-09-26T13:47:46.487Z,0.70
2022-09-26T13:50:25.709Z,0.63
2022-09-26T13:53:27.078Z,0.80
2022-09-26T13:56:35.047Z,0.80
2022-09-26T13:59:09.524Z,0.93
2022-09-26T14:01:37.056Z,1.07
2022-09-26T14:04:34.454Z,1.10
2022-09-26T14:07:29.206Z,0.73
2022-09-26T14:10:03.142Z,0.43
2022-09-26T14:13:08.523Z,0.80
2022-09-26T14:15:48.870Z,0.53
2022-09-26T14:18:58.254Z,0.93
2022-09-26T14:21:41.220Z,0.73
2022-09-26T14:24:20.620Z,0.70
2022-09-26T14:27:06.271Z,0.80
2022-09-26T14:29:33.401Z,0.60
2022-09-26T14:32:06.310Z,0.73
2022-09-26T14:34:45.273Z,0.70
2022-09-26T14:37:27.027Z,0.73
2022-09-26T14:40:00.205Z,0.90
2022-09-26T14:43:03.947Z,0.50
2022-09-26T14:45:37.119Z,0.87
2022-09-26T14:48:41.019Z,0.90
2022-09-26T14:51:11.512Z,1.00
2022-09-26T14:53:39.295Z,0.53
2022-09-26T14:56:38.414Z,0.67
2022-09-26T14:59:30.027Z,1.00
2022-09-26T15:02:26.256Z,1.20
2022-09-26T15:05:04.912Z,0.80
2022-09-26T15:07:47.591Z,1.10
2022-09-26T15:10:41.684Z,1.73
2022-09-26T15:13:18.037Z,1.03
2022-09-26T15:15:56.175Z,1.50
2022-09-26T15:18:51.665Z,0.87
2022-09-26T15:21:38.550Z,1.50
2022-09-26T15:24:34.174Z,1.13
2022-09-26T15:27:29.273Z,1.00
2022-09-26T15:30:05.735Z,1.27
2022-09-26T15:32:34.404Z,1.30
2022-09-26T15:35:03.578Z,1.23
2022-09-26T15:37:36.629Z,1.00
2022-09-26T15:40:32.897Z,0.60
2022-09-26T15:43:23.043Z,0.73
2022-09-26T15:46:03.486Z,0.90
2022-09-26T15:48:33.213Z,0.67
2022-09-26T15:51:23.703Z,1.90
2022-09-26T15:54:02.548Z,1.20
2022-09-26T15:56:49.116Z,1.00
2022-09-26T15:59:41.396Z,1.20
2022-09-26T16:02:26.493Z,1.00
2022-09-26T16:04:54.943Z,0.80
2022-09-26T16:07:28.136Z,1.10
2022-09-26T16:09:57.608Z,0.97
2022-09-26T16:12:31.874Z,0.70
2022-09-26T16:15:03.638Z,0.80
2022-09-26T16:17:49.144Z,0.60
2022-09-26T16:20:16.505Z,0.90
2022-09-26T16:22:51.695Z,1.40
2022-09-26T16:25:19.051Z,1.30
2022-09-26T16:27:58.305Z,1.10
2022-09-26T16:30:28.076Z,0.67
2022-09-26T16:33:02.395Z,1.07
2022-09-26T16:35:33.697Z,1.00
2022-09-26T16:38:23.809Z,1.10
2022-09-26T16:40:56.211Z,0.77
2022-09-26T16:43:31.884Z,0.93
2022-09-26T16:46:05.257Z,1.23
2022-09-26T16:48:50.793Z,0.90
2022-09-26T16:51:25.573Z,1.20
2022-09-26T16:54:20.416Z,1.13
2022-09-26T16:56:53.277Z,1.00
2022-09-26T16:59:32.417Z,1.27
2022-09-26T17:02:03.123Z,1.00
2022-09-26T17:04:36.439Z,1.53
2022-09-26T17:07:11.719Z,1.17
2022-09-26T17:09:41.467Z,1.30
2022-09-26T17:12:21.932Z,1.63
2022-09-26T17:14:52.089Z,1.87
2022-09-26T17:17:24.203Z,1.50
2022-09-26T17:19:59.154Z,2.77
2022-09-26T17:22:28.373Z,1.60
2022-09-26T17:24:55.960Z,1.70
2022-09-26T17:27:33.461Z,1.53
2022-09-26T17:30:14.724Z,1.30
2022-09-26T17:32:50.021Z,1.40
2022-09-26T17:35:25.803Z,2.07
2022-09-26T17:37:54.417Z,1.73
2022-09-26T17:40:30.238Z,1.13
2022-09-26T17:43:01.996Z,1.53
2022-09-26T17:45:37.590Z,1.37
2022-09-26T17:48:13.329Z,1.87
2022-09-26T17:50:43.097Z,2.00
2022-09-26T17:53:21.606Z,1.80
2022-09-26T17:55:50.356Z,1.63
2022-09-26T17:58:19.360Z,1.93
2022-09-26T18:00:55.361Z,2.00
2022-09-26T18:03:34.686Z,1.93
2022-09-26T18:06:06.573Z,2.83
2022-09-26T18:08:39.584Z,2.30
2022-09-26T18:11:15.808Z,1.40
2022-09-26T18:13:56.017Z,1.93
2022-09-26T18:16:25.613Z,2.20
2022-09-26T18:18:53.804Z,2.10
2022-09-26T18:21:24.697Z,2.77
2022-09-26T18:24:03.094Z,2.53
2022-09-26T18:26:47.664Z,2.13
2022-09-26T18:29:47.292Z,2.30
2022-09-26T18:32:39.387Z,3.07
2022-09-26T18:35:17.062Z,2.70
2022-09-26T18:37:45.465Z,2.10
2022-09-26T18:40:20.817Z,2.23
2022-09-26T18:42:49.234Z,2.10
2022-09-26T18:45:31.358Z,2.03
2022-09-26T18:47:59.814Z,2.30
2022-09-26T18:50:37.960Z,4.73
2022-09-26T18:53:17.996Z,3.20
2022-09-26T18:56:05.424Z,3.07
2022-09-26T18:58:36.208Z,3.20
2022-09-26T19:01:40.980Z,2.73
2022-09-26T19:04:18.778Z,3.20
2022-09-26T19:07:01.759Z,2.73
2022-09-26T19:09:34.677Z,2.53
2022-09-26T19:12:04.335Z,2.73
2022-09-26T19:14:32.504Z,2.20
2022-09-26T19:17:00.374Z,2.33
2022-09-26T19:19:30.437Z,2.57
2022-09-26T19:22:10.673Z,2.80
2022-09-26T19:25:02.097Z,2.33
2022-09-26T19:27:53.023Z,5.10
2022-09-26T19:30:22.923Z,2.53
2022-09-26T19:32:56.578Z,1.77
2022-09-26T19:35:33.284Z,2.00
2022-09-26T19:38:08.154Z,2.53
2022-09-26T19:40:43.801Z,2.50
2022-09-26T19:43:16.682Z,1.73
2022-09-26T19:45:46.422Z,2.43
2022-09-26T19:48:22.315Z,1.37
2022-09-26T19:50:50.915Z,1.60
2022-09-26T19:53:21.493Z,2.23
2022-09-26T19:55:50.446Z,2.63
2022-09-26T19:58:21.613Z,2.53
2022-09-26T20:00:55.736Z,2.37
2022-09-26T20:03:31.375Z,1.83
2022-09-26T20:05:59.836Z,3.37
2022-09-26T20:08:28.039Z,2.87
2022-09-26T20:10:56.808Z,1.83
2022-09-26T20:13:24.377Z,3.53
2022-09-26T20:15:52.158Z,1.93
2022-09-26T20:18:24.228Z,3.20
2022-09-26T20:20:56.940Z,2.20
2022-09-26T20:23:27.313Z,1.87
2022-09-26T20:25:56.798Z,1.20
2022-09-26T20:28:23.875Z,1.67
2022-09-26T20:30:55.459Z,1.77
2022-09-26T20:33:26.515Z,1.57
2022-09-26T20:36:04.386Z,2.30
2022-09-26T20:38:51.183Z,1.00
2022-09-26T20:41:34.181Z,1.27
2022-09-26T20:44:08.156Z,1.10
2022-09-26T20:46:41.044Z,1.80
2022-09-26T20:49:18.883Z,0.77
2022-09-26T20:51:47.560Z,2.07
2022-09-26T20:54:32.678Z,1.13
2022-09-26T20:57:01.481Z,1.20
2022-09-26T20:59:29.336Z,1.33
2022-09-26T21:01:59.191Z,1.77
2022-09-26T21:04:32.787Z,1.47
2022-09-26T21:07:00.350Z,1.30
2022-09-26T21:09:27.811Z,1.00
2022-09-26T21:11:55.278Z,1.27
2022-09-26T21:14:22.581Z,1.60
2022-09-26T21:16:52.551Z,0.53
2022-09-26T21:19:24.324Z,1.90
2022-09-26T21:21:52.375Z,1.03
2022-09-26T21:24:38.237Z,1.87
2022-09-26T21:27:11.601Z,1.07
2022-09-26T21:29:40.594Z,1.20
2022-09-26T21:32:19.241Z,1.53
2022-09-26T21:35:03.009Z,1.40
2022-09-26T21:37:31.881Z,1.73
2022-09-26T21:39:59.567Z,1.63
2022-09-26T21:42:26.683Z,1.40
2022-09-26T21:45:03.635Z,1.03
2022-09-26T21:47:32.203Z,1.07
2022-09-26T21:49:59.876Z,1.00
2022-09-26T21:52:49.385Z,1.37
2022-09-26T21:55:24.627Z,1.40
2022-09-26T21:57:55.339Z,1.67
2022-09-26T22:00:23.097Z,1.10
2022-09-26T22:02:50.740Z,0.67
2022-09-26T22:05:18.706Z,1.00
2022-09-26T22:07:45.768Z,0.87
2022-09-26T22:10:13.374Z,1.67
2022-09-26T22:12:40.518Z,1.37
2022-09-26T22:15:08.614Z,1.23
2022-09-26T22:17:36.184Z,1.30
2022-09-26T22:20:04.159Z,1.33
2022-09-26T22:22:31.820Z,2.60
2022-09-26T22:25:03.289Z,1.33
2022-09-26T22:27:35.200Z,1.13
2022-09-26T22:30:04.569Z,1.20
2022-09-26T22:32:32.303Z,1.50
2022-09-26T22:34:59.666Z,0.90
2022-09-26T22:37:26.891Z,0.97
2022-09-26T22:39:54.599Z,1.20
2022-09-26T22:42:22.086Z,0.73
2022-09-26T22:44:50.479Z,0.90
2022-09-26T22:47:17.952Z,1.03
2022-09-26T22:49:45.562Z,1.60
2022-09-26T22:52:12.651Z,0.83
2022-09-26T22:54:40.145Z,1.30
2022-09-26T22:57:07.222Z,0.80
2022-09-26T22:59:34.806Z,1.67
2022-09-26T23:02:02.062Z,1.00
2022-09-26T23:04:46.945Z,1.37
2022-09-26T23:07:17.715Z,1.03
2022-09-26T23:09:45.904Z,1.17
2022-09-26T23:12:14.138Z,1.23
2022-09-26T23:14:41.659Z,1.37
2022-09-26T23:17:09.500Z,1.20
2022-09-26T23:19:38.214Z,1.00
2022-09-26T23:22:05.321Z,1.80
2022-09-26T23:24:33.121Z,1.47
2022-09-26T23:27:00.486Z,1.00
2022-09-26T23:29:27.630Z,1.47
2022-09-26T23:31:55.337Z,0.80
2022-09-26T23:34:22.717Z,0.23
2022-09-26T23:36:50.271Z,1.50
2022-09-26T23:39:18.902Z,1.00
2022-09-26T23:41:46.088Z,0.70
2022-09-26T23:44:13.650Z,1.10
2022-09-26T23:46:41.363Z,2.03
2022-09-26T23:49:08.533Z,0.70
2022-09-26T23:51:35.713Z,1.33
2022-09-26T23:54:03.508Z,0.87
2022-09-26T23:56:30.651Z,0.90
2022-09-26T23:58:58.071Z,0.53
